createdAt,value
2024-02-19T00:01:22.691Z,13.77
2024-02-19T00:04:28.222Z,16.35
2024-02-19T00:07:35.895Z,11.48
2024-02-19T00:10:44.102Z,14.23
2024-02-19T00:13:51.627Z,12.95
2024-02-19T00:16:57.590Z,15.90
2024-02-19T00:20:05.221Z,11.45
2024-02-19T00:23:10.761Z,15.20
2024-02-19T00:26:20.760Z,18.65
2024-02-19T00:29:26.513Z,11.38
2024-02-19T00:32:34.302Z,14.15
2024-02-19T00:35:39.962Z,17.27
2024-02-19T00:38:47.416Z,20.67
2024-02-19T00:41:55.511Z,14.23
2024-02-19T00:45:02.946Z,14.13
2024-02-19T00:48:09.543Z,15.82
2024-02-19T00:51:17.052Z,11.15
2024-02-19T00:54:22.544Z,14.10
2024-02-19T00:57:32.612Z,17.08
2024-02-19T01:00:38.369Z,16.17
2024-02-19T01:03:47.938Z,8.05
2024-02-19T01:06:53.495Z,8.75
2024-02-19T01:10:01.095Z,16.13
2024-02-19T01:13:09.316Z,10.75
2024-02-19T01:16:17.025Z,13.73
2024-02-19T01:19:23.073Z,7.78
2024-02-19T01:22:31.040Z,7.82
2024-02-19T01:25:36.509Z,10.50
2024-02-19T01:28:46.678Z,12.82
2024-02-19T01:31:52.134Z,8.45
2024-02-19T01:34:59.732Z,6.90
2024-02-19T01:38:05.599Z,7.47
2024-02-19T01:41:13.096Z,7.63
2024-02-19T01:44:21.778Z,6.35
2024-02-19T01:47:29.472Z,4.50
2024-02-19T01:50:37.836Z,4.32
2024-02-19T01:53:46.379Z,4.95
2024-02-19T01:56:53.241Z,5.10
2024-02-19T02:00:07.310Z,8.50
2024-02-19T02:03:20.926Z,12.88
2024-02-19T02:06:28.564Z,8.20
2024-02-19T02:09:34.572Z,9.18
2024-02-19T02:12:42.217Z,4.93
2024-02-19T02:15:50.319Z,9.07
2024-02-19T02:18:57.952Z,4.35
2024-02-19T02:22:03.629Z,9.55
2024-02-19T02:25:11.717Z,10.00
2024-02-19T02:28:19.943Z,12.07
2024-02-19T02:31:27.466Z,12.65
2024-02-19T02:34:33.087Z,11.68
2024-02-19T02:37:40.516Z,10.60
2024-02-19T02:40:46.072Z,11.48
2024-02-19T02:43:56.087Z,9.98
2024-02-19T02:47:01.569Z,12.52
2024-02-19T02:50:10.271Z,8.85
2024-02-19T02:53:15.824Z,16.88
2024-02-19T02:56:23.572Z,8.52
2024-02-19T02:59:31.708Z,9.02
2024-02-19T03:02:39.282Z,11.77
2024-02-19T03:05:44.715Z,6.53
2024-02-19T03:08:52.359Z,10.68
2024-02-19T03:11:57.854Z,7.60
2024-02-19T03:15:08.702Z,8.73
2024-02-19T03:18:14.219Z,25.58
2024-02-19T03:21:22.238Z,11.80
2024-02-19T03:24:27.704Z,12.00
2024-02-19T03:27:35.159Z,13.05
2024-02-19T03:30:43.460Z,13.90
2024-02-19T03:33:51.082Z,15.23
2024-02-19T03:36:56.650Z,16.70
2024-02-19T03:40:08.071Z,14.90
2024-02-19T03:43:14.130Z,15.57
2024-02-19T03:46:24.335Z,29.17
2024-02-19T03:49:29.982Z,14.77
2024-02-19T03:52:37.452Z,14.00
2024-02-19T03:55:42.916Z,11.23
2024-02-19T03:58:50.678Z,9.32
2024-02-19T04:01:58.802Z,9.43
2024-02-19T04:05:06.615Z,19.73
2024-02-19T04:08:12.161Z,10.70
2024-02-19T04:11:20.230Z,16.00
2024-02-19T04:14:26.260Z,10.32
2024-02-19T04:17:36.812Z,19.02
2024-02-19T04:20:42.359Z,15.98
2024-02-19T04:23:49.820Z,14.35
2024-02-19T04:26:55.323Z,18.85
2024-02-19T04:30:02.858Z,15.88
2024-02-19T04:33:11.186Z,14.13
2024-02-19T04:36:18.847Z,21.50
2024-02-19T04:39:24.274Z,20.70
2024-02-19T04:42:31.716Z,19.90
2024-02-19T04:45:37.251Z,20.05
2024-02-19T04:48:47.415Z,23.52
2024-02-19T04:51:52.896Z,20.13
2024-02-19T04:55:00.613Z,17.63
2024-02-19T04:58:06.509Z,17.52
2024-02-19T05:01:14.306Z,22.65
2024-02-19T05:04:23.293Z,28.23
2024-02-19T05:07:30.844Z,26.65
2024-02-19T05:10:36.565Z,25.83
2024-02-19T05:13:44.113Z,21.63
2024-02-19T05:16:49.607Z,24.92
2024-02-19T05:19:59.695Z,29.77
2024-02-19T05:23:05.303Z,19.17
2024-02-19T05:26:12.808Z,30.02
2024-02-19T05:29:18.212Z,20.55
2024-02-19T05:32:25.992Z,17.52
2024-02-19T05:35:34.058Z,28.40
2024-02-19T05:38:41.523Z,28.33
2024-02-19T05:41:47.505Z,22.38
2024-02-19T05:44:55.037Z,29.85
2024-02-19T05:48:00.919Z,27.10
2024-02-19T05:51:11.466Z,24.55
2024-02-19T05:54:16.962Z,27.38
2024-02-19T05:57:24.458Z,37.63
2024-02-19T06:00:31.357Z,16.65
2024-02-19T06:03:39.274Z,23.90
2024-02-19T06:06:47.512Z,22.83
2024-02-19T06:09:55.226Z,21.70
2024-02-19T06:13:00.877Z,16.10
2024-02-19T06:16:09.228Z,29.02
2024-02-19T06:19:16.859Z,29.40
2024-02-19T06:22:27.003Z,24.58
2024-02-19T06:25:32.556Z,29.35
2024-02-19T06:28:40.472Z,28.23
2024-02-19T06:31:47.558Z,28.27
2024-02-19T06:34:55.163Z,29.15
2024-02-19T06:38:04.217Z,27.92
2024-02-19T06:41:11.743Z,30.17
2024-02-19T06:44:17.229Z,37.13
2024-02-19T06:47:24.808Z,41.65
2024-02-19T06:50:30.325Z,33.33
2024-02-19T06:53:40.467Z,30.55
2024-02-19T06:56:45.997Z,29.70
2024-02-19T06:59:54.172Z,37.40
2024-02-19T07:02:59.636Z,30.17
2024-02-19T07:06:08.177Z,36.88
2024-02-19T07:09:16.313Z,32.58
2024-02-19T07:12:23.812Z,26.73
2024-02-19T07:15:29.679Z,27.38
2024-02-19T07:18:37.296Z,33.13
2024-02-19T07:21:43.005Z,30.15
2024-02-19T07:24:59.294Z,31.45
2024-02-19T07:28:11.643Z,33.45
2024-02-19T07:31:19.415Z,27.60
2024-02-19T07:34:25.002Z,32.88
2024-02-19T07:37:32.774Z,38.80
2024-02-19T07:40:40.978Z,29.98
2024-02-19T07:43:48.869Z,32.92
2024-02-19T07:46:54.301Z,30.33
2024-02-19T07:50:02.020Z,36.67
2024-02-19T07:53:08.011Z,29.50
2024-02-19T07:56:20.987Z,29.13
2024-02-19T07:59:27.059Z,33.97
2024-02-19T08:02:34.538Z,34.35
2024-02-19T08:05:40.407Z,28.60
2024-02-19T08:08:47.932Z,32.63
2024-02-19T08:11:59.045Z,30.63
2024-02-19T08:15:08.294Z,38.22
2024-02-19T08:18:13.939Z,36.22
2024-02-19T08:21:21.484Z,32.60
2024-02-19T08:24:26.918Z,27.85
2024-02-19T08:27:37.022Z,36.50
2024-02-19T08:30:42.596Z,28.60
2024-02-19T08:33:50.250Z,37.65
2024-02-19T08:36:56.645Z,39.78
2024-02-19T08:40:04.131Z,38.95
2024-02-19T08:43:13.080Z,44.30
2024-02-19T08:46:20.733Z,42.53
2024-02-19T08:49:27.298Z,29.77
2024-02-19T08:52:34.892Z,30.73
2024-02-19T08:55:40.461Z,43.03
2024-02-19T08:58:50.580Z,35.67
2024-02-19T09:01:56.163Z,36.13
2024-02-19T09:05:03.730Z,43.38
2024-02-19T09:08:10.620Z,38.30
2024-02-19T09:11:18.214Z,33.28
2024-02-19T09:14:28.165Z,29.88
2024-02-19T09:17:35.705Z,32.10
2024-02-19T09:20:41.188Z,36.65
2024-02-19T09:23:48.662Z,39.72
2024-02-19T09:26:54.156Z,31.58
2024-02-19T09:30:05.238Z,28.35
2024-02-19T09:33:10.846Z,31.88
2024-02-19T09:36:20.392Z,25.40
2024-02-19T09:39:25.802Z,27.42
2024-02-19T09:42:34.276Z,30.15
2024-02-19T09:45:42.502Z,23.77
2024-02-19T09:48:52.574Z,26.90
2024-02-19T09:52:00.387Z,28.85
2024-02-19T09:55:10.540Z,28.92
2024-02-19T09:58:16.094Z,26.45
2024-02-19T10:01:26.316Z,31.08
2024-02-19T10:04:32.962Z,22.75
2024-02-19T10:07:40.572Z,25.65
2024-02-19T10:10:47.421Z,23.50
2024-02-19T10:13:54.970Z,30.73
2024-02-19T10:17:06.465Z,30.40
2024-02-19T10:20:15.336Z,33.03
2024-02-19T10:23:24.304Z,21.52
2024-02-19T10:26:32.147Z,21.98
2024-02-19T10:29:37.602Z,36.53
2024-02-19T10:32:47.793Z,21.33
2024-02-19T10:35:53.632Z,30.08
2024-02-19T10:39:01.110Z,19.98
2024-02-19T10:42:08.016Z,25.77
2024-02-19T10:45:15.885Z,18.80
2024-02-19T10:48:24.408Z,29.73
2024-02-19T10:51:33.435Z,16.35
2024-02-19T10:54:38.906Z,26.58
2024-02-19T10:57:52.558Z,21.70
2024-02-19T11:01:05.709Z,32.70
2024-02-19T11:04:25.149Z,21.00
2024-02-19T11:07:35.708Z,15.75
2024-02-19T11:10:44.934Z,26.95
2024-02-19T11:13:52.548Z,19.88
2024-02-19T11:16:58.436Z,22.60
2024-02-19T11:20:11.033Z,44.90
2024-02-19T11:23:17.544Z,14.50
2024-02-19T11:26:25.241Z,19.60
2024-02-19T11:29:36.640Z,24.58
2024-02-19T11:32:51.218Z,14.73
2024-02-19T11:36:00.134Z,24.67
2024-02-19T11:39:09.060Z,23.65
2024-02-19T11:42:16.727Z,22.50
2024-02-19T11:45:24.803Z,18.23
2024-02-19T11:48:31.161Z,21.42
2024-02-19T11:51:41.580Z,21.38
2024-02-19T11:54:47.207Z,17.33
2024-02-19T11:57:55.170Z,18.05
2024-02-19T12:01:01.599Z,20.63
2024-02-19T12:04:09.913Z,14.93
2024-02-19T12:07:18.094Z,18.52
2024-02-19T12:10:25.833Z,21.17
2024-02-19T12:13:34.027Z,18.90
2024-02-19T12:16:41.732Z,11.15
2024-02-19T12:19:47.227Z,25.13
2024-02-19T12:22:57.940Z,18.80
2024-02-19T12:26:05.043Z,21.50
2024-02-19T12:29:13.874Z,18.73
2024-02-19T12:32:19.308Z,18.67
2024-02-19T12:35:27.043Z,17.23
2024-02-19T12:38:35.348Z,18.38
2024-02-19T12:41:45.016Z,14.88
2024-02-19T12:44:50.475Z,11.70
2024-02-19T12:47:58.133Z,25.52
2024-02-19T12:51:04.821Z,25.80
2024-02-19T12:54:15.231Z,15.15
2024-02-19T12:57:22.499Z,16.02
2024-02-19T13:00:30.241Z,18.80
2024-02-19T13:03:35.787Z,17.30
2024-02-19T13:06:43.277Z,19.50
2024-02-19T13:09:51.398Z,16.35
2024-02-19T13:12:58.860Z,16.77
2024-02-19T13:16:04.564Z,15.70
2024-02-19T13:19:13.141Z,11.13
2024-02-19T13:22:18.768Z,16.67
2024-02-19T13:25:29.014Z,17.42
2024-02-19T13:28:35.029Z,19.15
2024-02-19T13:31:42.773Z,17.42
2024-02-19T13:34:48.846Z,25.05
2024-02-19T13:37:58.248Z,18.25
2024-02-19T13:41:06.434Z,19.52
2024-02-19T13:44:14.908Z,13.48
2024-02-19T13:47:22.947Z,14.93
2024-02-19T13:50:31.068Z,15.95
2024-02-19T13:53:36.696Z,9.73
2024-02-19T13:56:46.851Z,16.00
2024-02-19T13:59:52.786Z,12.68
2024-02-19T14:03:00.247Z,21.65
2024-02-19T14:06:06.041Z,17.20
2024-02-19T14:09:14.506Z,20.92
2024-02-19T14:12:22.512Z,18.88
2024-02-19T14:15:30.004Z,14.18
2024-02-19T14:18:35.539Z,17.35
2024-02-19T14:21:43.092Z,15.38
2024-02-19T14:24:48.814Z,18.60
2024-02-19T14:28:00.992Z,19.60
2024-02-19T14:31:06.924Z,18.67
2024-02-19T14:34:14.591Z,20.83
2024-02-19T14:37:20.194Z,19.35
2024-02-19T14:40:27.749Z,17.05
2024-02-19T14:43:36.427Z,17.98
2024-02-19T14:46:51.713Z,16.40
2024-02-19T14:50:03.761Z,17.17
2024-02-19T14:53:11.754Z,15.18
2024-02-19T14:56:17.370Z,18.90
2024-02-19T14:59:28.103Z,17.10
2024-02-19T15:02:33.701Z,15.38
2024-02-19T15:05:41.596Z,13.57
2024-02-19T15:08:50.132Z,24.75
2024-02-19T15:11:57.630Z,17.95
2024-02-19T15:15:07.442Z,10.27
2024-02-19T15:18:16.582Z,14.50
2024-02-19T15:21:22.401Z,19.77
2024-02-19T15:24:29.939Z,13.68
2024-02-19T15:27:37.506Z,15.60
2024-02-19T15:30:47.945Z,17.55
2024-02-19T15:33:53.578Z,15.27
2024-02-19T15:37:01.470Z,16.50
2024-02-19T15:40:07.940Z,17.60
2024-02-19T15:43:15.569Z,14.82
2024-02-19T15:46:23.756Z,15.50
2024-02-19T15:49:31.288Z,21.77
2024-02-19T15:52:37.773Z,17.00
2024-02-19T15:55:45.269Z,15.10
2024-02-19T15:58:50.880Z,20.35
2024-02-19T16:02:04.208Z,26.30
2024-02-19T16:05:11.972Z,12.50
2024-02-19T16:08:42.582Z,20.38
2024-02-19T16:11:48.990Z,17.02
2024-02-19T16:14:56.581Z,21.85
2024-02-19T16:18:06.107Z,14.75
2024-02-19T16:21:16.362Z,12.87
2024-02-19T16:24:21.912Z,19.60
2024-02-19T16:27:30.006Z,19.83
2024-02-19T16:30:35.477Z,23.30
2024-02-19T16:33:45.655Z,12.38
2024-02-19T16:36:51.323Z,16.90
2024-02-19T16:39:58.888Z,16.08
2024-02-19T16:43:04.560Z,16.58
2024-02-19T16:46:12.954Z,30.83
2024-02-19T16:49:21.186Z,9.55
2024-02-19T16:52:28.838Z,20.13
2024-02-19T16:55:34.535Z,17.60
2024-02-19T16:58:42.255Z,15.80
2024-02-19T17:01:48.419Z,14.10
2024-02-19T17:04:58.877Z,13.45
2024-02-19T17:08:05.452Z,17.60
2024-02-19T17:11:13.026Z,16.05
2024-02-19T17:14:18.661Z,13.02
2024-02-19T17:17:26.406Z,10.52
2024-02-19T17:20:34.569Z,11.50
2024-02-19T17:23:45.558Z,16.15
2024-02-19T17:26:51.869Z,12.35
2024-02-19T17:29:59.336Z,17.27
2024-02-19T17:33:05.823Z,16.25
2024-02-19T17:36:15.990Z,12.85
2024-02-19T17:39:24.803Z,23.10
2024-02-19T17:42:33.578Z,19.98
2024-02-19T17:45:39.280Z,19.17
2024-02-19T17:48:49.583Z,13.32
2024-02-19T17:51:57.858Z,19.83
2024-02-19T17:55:05.436Z,13.88
2024-02-19T17:58:10.969Z,19.05
2024-02-19T18:01:18.538Z,16.75
2024-02-19T18:04:24.139Z,19.25
2024-02-19T18:07:34.348Z,20.23
2024-02-19T18:10:39.946Z,13.52
2024-02-19T18:13:47.660Z,16.45
2024-02-19T18:16:53.225Z,15.43
2024-02-19T18:20:00.952Z,15.85
2024-02-19T18:23:11.313Z,17.25
2024-02-19T18:26:20.277Z,13.63
2024-02-19T18:29:26.369Z,14.13
2024-02-19T18:32:38.784Z,12.48
2024-02-19T18:35:44.408Z,15.23
2024-02-19T18:38:54.697Z,14.48
2024-02-19T18:42:01.386Z,9.43
2024-02-19T18:45:10.901Z,11.63
2024-02-19T18:48:16.487Z,10.75
2024-02-19T18:51:24.023Z,9.00
2024-02-19T18:54:32.939Z,8.40
2024-02-19T18:57:40.513Z,13.23
2024-02-19T19:00:46.092Z,11.13
2024-02-19T19:03:53.623Z,11.98
2024-02-19T19:06:59.212Z,8.30
2024-02-19T19:10:10.114Z,17.40
2024-02-19T19:13:16.155Z,14.18
2024-02-19T19:16:23.711Z,14.75
2024-02-19T19:19:29.757Z,22.30
2024-02-19T19:22:37.438Z,19.38
2024-02-19T19:25:45.511Z,22.75
2024-02-19T19:28:53.034Z,24.85
2024-02-19T19:31:58.544Z,13.98
2024-02-19T19:35:06.216Z,18.00
2024-02-19T19:38:12.091Z,19.05
2024-02-19T19:41:22.251Z,19.70
2024-02-19T19:44:27.821Z,18.77
2024-02-19T19:47:35.923Z,26.58
2024-02-19T19:50:41.497Z,25.52
2024-02-19T19:53:48.964Z,20.42
2024-02-19T19:56:57.419Z,20.38
2024-02-19T20:00:06.702Z,33.22
2024-02-19T20:03:12.345Z,30.85
2024-02-19T20:06:19.955Z,23.63
2024-02-19T20:09:26.531Z,28.88
2024-02-19T20:12:37.045Z,23.15
2024-02-19T20:15:42.615Z,26.55
2024-02-19T20:18:50.242Z,33.72
2024-02-19T20:21:55.849Z,22.35
2024-02-19T20:25:04.463Z,33.03
2024-02-19T20:28:12.774Z,33.30
2024-02-19T20:31:20.316Z,28.27
2024-02-19T20:34:27.994Z,32.65
2024-02-19T20:37:36.101Z,28.88
2024-02-19T20:40:41.593Z,28.42
2024-02-19T20:43:51.737Z,30.42
2024-02-19T20:46:57.245Z,35.20
2024-02-19T20:50:05.673Z,30.70
2024-02-19T20:53:14.807Z,33.25
2024-02-19T20:56:22.406Z,28.67
2024-02-19T20:59:33.169Z,30.73
2024-02-19T21:02:42.619Z,43.30
2024-02-19T21:05:48.412Z,28.55
2024-02-19T21:08:55.906Z,23.35
2024-02-19T21:12:01.421Z,28.67
2024-02-19T21:15:12.969Z,29.77
2024-02-19T21:18:30.760Z,21.77
2024-02-19T21:21:42.124Z,24.37
2024-02-19T21:24:47.617Z,23.73
2024-02-19T21:27:55.158Z,28.05
2024-02-19T21:31:03.945Z,27.55
2024-02-19T21:34:13.044Z,25.92
2024-02-19T21:37:19.301Z,30.67
2024-02-19T21:40:27.365Z,27.20
2024-02-19T21:43:33.157Z,29.80
2024-02-19T21:46:44.168Z,23.42
2024-02-19T21:49:49.740Z,37.55
2024-02-19T21:52:57.280Z,23.13
2024-02-19T21:56:02.702Z,21.05
2024-02-19T21:59:10.236Z,24.70
2024-02-19T22:02:18.360Z,29.15
2024-02-19T22:05:26.042Z,30.50
2024-02-19T22:08:31.900Z,27.88
2024-02-19T22:11:39.460Z,28.73
2024-02-19T22:14:45.633Z,25.50
2024-02-19T22:17:56.180Z,38.13
2024-02-19T22:21:01.761Z,39.25
2024-02-19T22:24:09.758Z,30.38
2024-02-19T22:27:15.608Z,23.38
2024-02-19T22:30:24.399Z,37.15
2024-02-19T22:33:33.530Z,44.50
2024-02-19T22:36:41.007Z,25.75
2024-02-19T22:39:46.547Z,31.80
2024-02-19T22:42:54.073Z,30.30
2024-02-19T22:45:59.696Z,45.33
2024-02-19T22:49:09.988Z,35.80
2024-02-19T22:52:15.576Z,26.38
2024-02-19T22:55:23.072Z,31.33
2024-02-19T22:58:32.966Z,31.70
2024-02-19T23:01:42.641Z,29.13
2024-02-19T23:04:50.792Z,28.10
2024-02-19T23:08:00.138Z,41.33
2024-02-19T23:11:07.422Z,30.05
2024-02-19T23:14:16.862Z,24.90
2024-02-19T23:17:22.478Z,35.90
2024-02-19T23:20:32.606Z,28.38
2024-02-19T23:23:38.255Z,33.17
2024-02-19T23:26:45.689Z,40.03
2024-02-19T23:29:51.214Z,44.72
2024-02-19T23:32:58.797Z,38.78
2024-02-19T23:36:08.896Z,43.65
2024-02-19T23:39:16.400Z,28.52
2024-02-19T23:42:21.941Z,38.03
2024-02-19T23:45:29.445Z,44.58
2024-02-19T23:48:36.157Z,40.55
2024-02-19T23:51:51.168Z,33.35
2024-02-19T23:54:59.345Z,48.03
2024-02-19T23:58:07.375Z,36.67
